Time;durP1;ratioP1;P1;durP2;ratioP2;P2;SDS_P1;SDS_P2;PMS_P1;PMS_P2;Temp;Humidity;BMP_temperature;BMP_pressure;BME280_temperature;BME280_humidity;BME280_pressure;Samples;Min_cycle;Max_cycle;Signal;HPM_P1;HPM_P2
2023/01/22 00:01:18;;;;;;;21.10;11.60;;;;;;;;;;5002262;28;20065;-66
2023/01/22 00:03:43;;;;;;;24.95;11.95;;;;;;;;;;5002048;28;20160;-65
2023/01/22 00:06:10;;;;;;;23.27;11.10;;;;;;;;;;5001839;28;20074;-66
2023/01/22 00:08:36;;;;;;;24.05;11.00;;;;;;;;;;5001794;28;20084;-66
2023/01/22 00:11:03;;;;;;;19.65;9.52;;;;;;;;;;5002085;28;20045;-66
2023/01/22 00:13:28;;;;;;;26.30;11.80;;;;;;;;;;5001890;28;20128;-66
2023/01/22 00:15:57;;;;;;;25.65;11.73;;;;;;;;;;5002330;28;20136;-66
2023/01/22 00:18:22;;;;;;;23.90;11.90;;;;;;;;;;5000563;28;20042;-66
2023/01/22 00:20:49;;;;;;;20.13;10.43;;;;;;;;;;5002136;28;20090;-66
2023/01/22 00:23:16;;;;;;;21.65;11.63;;;;;;;;;;5001093;28;20046;-66
2023/01/22 00:25:41;;;;;;;26.73;12.18;;;;;;;;;;5001621;28;20044;-66
2023/01/22 00:28:07;;;;;;;23.83;12.27;;;;;;;;;;5001055;28;20485;-67
2023/01/22 00:30:32;;;;;;;22.08;11.18;;;;;;;;;;5002014;28;20080;-66
2023/01/22 00:32:58;;;;;;;24.27;12.07;;;;;;;;;;5004497;28;20674;-66
2023/01/22 00:35:24;;;;;;;19.40;10.65;;;;;;;;;;5000432;28;20034;-70
2023/01/22 00:37:51;;;;;;;17.65;8.77;;;;;;;;;;5001266;28;20054;-66
2023/01/22 00:40:17;;;;;;;22.48;12.02;;;;;;;;;;5000691;28;20042;-66
2023/01/22 00:42:42;;;;;;;22.50;12.27;;;;;;;;;;5001816;28;20084;-66
2023/01/22 00:45:11;;;;;;;26.73;11.80;;;;;;;;;;5000622;28;20513;-66
2023/01/22 00:47:37;;;;;;;25.70;12.50;;;;;;;;;;4999382;28;20052;-65
2023/01/22 00:50:03;;;;;;;23.65;13.00;;;;;;;;;;5016367;28;20046;-66
2023/01/22 00:52:28;;;;;;;25.65;12.70;;;;;;;;;;5000108;28;20132;-65
2023/01/22 00:54:54;;;;;;;21.85;11.32;;;;;;;;;;5001568;28;20144;-65
2023/01/22 00:57:20;;;;;;;25.13;12.40;;;;;;;;;;5001043;28;20050;-65
2023/01/22 00:59:49;;;;;;;22.92;12.30;;;;;;;;;;5000394;28;20138;-65
2023/01/22 01:02:15;;;;;;;27.30;12.38;;;;;;;;;;5000422;28;20054;-64
2023/01/22 01:04:41;;;;;;;20.40;11.75;;;;;;;;;;5000141;28;20142;-65
2023/01/22 01:07:07;;;;;;;23.65;12.18;;;;;;;;;;5001218;28;20053;-65
2023/01/22 01:09:32;;;;;;;21.98;11.73;;;;;;;;;;5000642;28;20518;-65
2023/01/22 01:11:59;;;;;;;23.58;12.27;;;;;;;;;;5000744;28;20099;-66
2023/01/22 01:14:25;;;;;;;25.50;12.38;;;;;;;;;;5016502;28;20041;-66
2023/01/22 01:16:51;;;;;;;20.50;12.07;;;;;;;;;;5016183;28;20160;-67
2023/01/22 01:19:16;;;;;;;23.17;12.43;;;;;;;;;;5000500;28;20134;-67
2023/01/22 01:21:42;;;;;;;21.48;11.50;;;;;;;;;;5000504;28;20140;-67
2023/01/22 01:24:09;;;;;;;23.48;12.45;;;;;;;;;;5001849;28;20145;-67
2023/01/22 01:26:34;;;;;;;23.02;11.35;;;;;;;;;;5000373;28;20164;-67
2023/01/22 01:29:03;;;;;;;23.58;11.85;;;;;;;;;;5008302;28;20046;-67
2023/01/22 01:31:29;;;;;;;20.35;10.77;;;;;;;;;;4998186;28;20042;-67
2023/01/22 01:33:55;;;;;;;26.00;12.57;;;;;;;;;;4999637;28;20403;-67
2023/01/22 01:36:23;;;;;;;20.33;11.43;;;;;;;;;;4998745;28;20060;-67
2023/01/22 01:38:50;;;;;;;20.90;11.38;;;;;;;;;;4999590;28;20104;-67
2023/01/22 01:41:22;;;;;;;20.95;11.25;;;;;;;;;;5000509;28;20452;-66
2023/01/22 01:44:14;;;;;;;20.83;11.77;;;;;;;;;;5000380;28;20046;-67
2023/01/22 01:46:43;;;;;;;20.23;11.77;;;;;;;;;;5015613;28;20042;-67
2023/01/22 01:49:16;;;;;;;19.98;11.27;;;;;;;;;;4999290;28;20045;-67
2023/01/22 01:51:42;;;;;;;19.70;11.27;;;;;;;;;;4999837;28;20056;-67
2023/01/22 01:54:08;;;;;;;22.50;12.00;;;;;;;;;;4999665;28;20046;-67
2023/01/22 01:56:38;;;;;;;21.50;12.18;;;;;;;;;;5000579;28;20084;-67
2023/01/22 01:59:10;;;;;;;20.45;11.23;;;;;;;;;;5015152;28;20065;-66
2023/01/22 02:01:36;;;;;;;;;;;;;;;;;;5000444;28;20137;-67
2023/01/22 02:04:02;;;;;;;18.52;10.15;;;;;;;;;;5000639;28;19925;-67
2023/01/22 02:06:27;;;;;;;20.52;10.55;;;;;;;;;;5015321;28;20116;-67
2023/01/22 02:08:53;;;;;;;21.77;11.30;;;;;;;;;;5014917;28;20045;-67
2023/01/22 02:11:21;;;;;;;20.25;11.27;;;;;;;;;;5014780;28;20042;-67
2023/01/22 02:13:51;;;;;;;19.70;11.45;;;;;;;;;;5004208;28;20056;-67
2023/01/22 02:16:17;;;;;;;21.85;12.05;;;;;;;;;;5015499;28;20495;-67
2023/01/22 02:18:42;;;;;;;20.83;11.18;;;;;;;;;;4999762;28;20052;-67
2023/01/22 02:21:29;;;;;;;18.67;11.32;;;;;;;;;;5000060;28;20050;-67
2023/01/22 02:23:55;;;;;;;23.52;12.57;;;;;;;;;;5001021;28;20065;-66
2023/01/22 02:26:21;;;;;;;20.30;11.57;;;;;;;;;;5015295;28;20046;-67
2023/01/22 02:28:46;;;;;;;22.70;12.13;;;;;;;;;;4999655;28;20049;-68
2023/01/22 02:31:12;;;;;;;20.90;11.65;;;;;;;;;;4994035;28;20052;-67
2023/01/22 02:33:38;;;;;;;22.50;12.23;;;;;;;;;;5004182;28;20046;-67
2023/01/22 02:36:04;;;;;;;23.63;12.05;;;;;;;;;;5015245;28;20053;-68
2023/01/22 02:38:31;;;;;;;22.75;11.95;;;;;;;;;;4998512;28;20096;-67
2023/01/22 02:40:57;;;;;;;22.45;12.23;;;;;;;;;;4999297;28;20434;-67
2023/01/22 02:43:23;;;;;;;23.67;11.90;;;;;;;;;;4998459;28;20046;-67
2023/01/22 02:45:49;;;;;;;24.05;13.02;;;;;;;;;;5014648;28;20052;-67
2023/01/22 02:48:14;;;;;;;23.48;11.85;;;;;;;;;;5003063;28;20064;-68
2023/01/22 02:50:40;;;;;;;25.58;12.52;;;;;;;;;;5002771;28;20046;-68
2023/01/22 02:53:06;;;;;;;23.42;12.63;;;;;;;;;;5003707;28;20046;-67
2023/01/22 02:55:32;;;;;;;23.63;11.40;;;;;;;;;;5002428;28;20115;-67
2023/01/22 02:57:58;;;;;;;19.42;11.23;;;;;;;;;;5005938;28;20050;-67
2023/01/22 03:00:23;;;;;;;19.15;11.20;;;;;;;;;;5002512;28;20088;-67
2023/01/22 03:02:49;;;;;;;21.13;11.77;;;;;;;;;;5002600;28;20663;-67
2023/01/22 03:05:15;;;;;;;22.77;12.63;;;;;;;;;;4989197;28;20046;-67
2023/01/22 03:07:41;;;;;;;21.50;11.70;;;;;;;;;;5007215;28;20053;-67
2023/01/22 03:10:13;;;;;;;18.52;10.63;;;;;;;;;;5018454;28;20045;-67
2023/01/22 03:23:36;;;;;;;21.08;11.10;;;;;;;;;;5018299;28;20056;-67
2023/01/22 03:26:03;;;;;;;18.15;9.73;;;;;;;;;;5002945;28;20056;-67
2023/01/22 03:28:29;;;;;;;22.60;11.85;;;;;;;;;;5017305;28;20127;-67
2023/01/22 03:30:55;;;;;;;19.00;11.25;;;;;;;;;;5017821;28;20050;-67
2023/01/22 03:33:20;;;;;;;22.08;11.93;;;;;;;;;;5018140;28;20049;-67
2023/01/22 03:35:48;;;;;;;22.73;12.05;;;;;;;;;;5001963;28;20404;-66
2023/01/22 03:38:17;;;;;;;21.77;12.73;;;;;;;;;;5016659;28;20055;-66
2023/01/22 03:40:42;;;;;;;21.00;12.10;;;;;;;;;;5017777;28;20046;-66
2023/01/22 03:43:08;;;;;;;21.15;11.15;;;;;;;;;;5001736;28;20088;-67
2023/01/22 03:45:34;;;;;;;23.90;12.60;;;;;;;;;;5001186;28;20205;-67
2023/01/22 03:48:01;;;;;;;22.33;12.40;;;;;;;;;;5001119;28;20077;-67
2023/01/22 03:50:30;;;;;;;23.40;12.60;;;;;;;;;;5000791;28;20052;-67
2023/01/22 03:52:57;;;;;;;24.50;12.95;;;;;;;;;;5002457;28;20034;-67
2023/01/22 03:55:24;;;;;;;21.58;12.05;;;;;;;;;;5002798;28;20060;-67
2023/01/22 03:57:51;;;;;;;23.13;12.60;;;;;;;;;;5000241;28;20522;-66
2023/01/22 04:00:18;;;;;;;24.90;13.32;;;;;;;;;;5016850;28;20144;-66
2023/01/22 04:02:44;;;;;;;22.67;12.65;;;;;;;;;;4999292;28;20046;-66
2023/01/22 04:05:19;;;;;;;22.98;12.63;;;;;;;;;;5002483;28;20057;-66
2023/01/22 04:07:44;;;;;;;23.70;12.65;;;;;;;;;;5006000;28;20041;-66
2023/01/22 04:10:11;;;;;;;23.77;12.32;;;;;;;;;;5017552;28;20053;-66
2023/01/22 04:12:36;;;;;;;21.33;12.23;;;;;;;;;;5001724;28;20116;-66
2023/01/22 04:15:02;;;;;;;21.90;12.52;;;;;;;;;;5001200;28;20038;-66
2023/01/22 04:17:27;;;;;;;24.63;12.68;;;;;;;;;;5001655;28;20052;-66
2023/01/22 04:20:07;;;;;;;22.55;12.13;;;;;;;;;;4987137;28;20037;-65
2023/01/22 04:22:46;;;;;;;22.23;12.20;;;;;;;;;;5016514;28;20153;-67
2023/01/22 04:25:12;;;;;;;25.92;13.70;;;;;;;;;;5003261;28;20558;-67
2023/01/22 04:27:37;;;;;;;23.58;13.23;;;;;;;;;;4999973;28;20089;-67
2023/01/22 04:30:04;;;;;;;21.17;13.15;;;;;;;;;;5014881;28;20045;-66
2023/01/22 04:32:30;;;;;;;22.98;12.75;;;;;;;;;;5015827;28;20069;-67
2023/01/22 04:35:15;;;;;;;23.15;12.07;;;;;;;;;;5016116;28;20057;-67
2023/01/22 04:37:48;;;;;;;23.95;11.93;;;;;;;;;;5015659;28;20057;-67
2023/01/22 04:40:14;;;;;;;22.05;12.30;;;;;;;;;;4985803;28;21147;-67
2023/01/22 04:42:41;;;;;;;19.45;11.43;;;;;;;;;;4997646;28;20049;-67
2023/01/22 04:45:07;;;;;;;22.48;12.35;;;;;;;;;;4999009;28;20506;-67
2023/01/22 04:47:33;;;;;;;22.73;12.65;;;;;;;;;;4999467;28;20046;-67
2023/01/22 04:49:58;;;;;;;21.92;12.48;;;;;;;;;;4999587;28;20124;-67
2023/01/22 04:52:24;;;;;;;26.02;12.98;;;;;;;;;;5000969;28;20726;-67
2023/01/22 04:54:50;;;;;;;21.30;12.27;;;;;;;;;;5000424;28;20049;-68
2023/01/22 04:57:16;;;;;;;24.08;11.95;;;;;;;;;;4999493;28;20157;-66
2023/01/22 04:59:42;;;;;;;20.63;11.70;;;;;;;;;;5000198;28;20148;-66
2023/01/22 05:02:08;;;;;;;20.70;12.15;;;;;;;;;;4999978;28;20115;-67
2023/01/22 05:04:33;;;;;;;23.95;12.68;;;;;;;;;;5016781;28;20057;-67
2023/01/22 05:06:59;;;;;;;24.13;12.88;;;;;;;;;;5015733;28;20410;-67
2023/01/22 05:09:25;;;;;;;22.33;12.43;;;;;;;;;;4998643;28;20084;-69
2023/01/22 05:11:52;;;;;;;23.00;12.43;;;;;;;;;;5016027;28;20052;-69
2023/01/22 05:14:18;;;;;;;21.33;11.73;;;;;;;;;;4999409;28;20049;-69
2023/01/22 05:16:47;;;;;;;19.25;10.90;;;;;;;;;;5016071;28;20048;-69
2023/01/22 05:19:13;;;;;;;25.40;12.10;;;;;;;;;;4983750;28;20038;-68
2023/01/22 05:21:39;;;;;;;23.63;12.55;;;;;;;;;;4999125;28;20042;-69
2023/01/22 05:24:07;;;;;;;20.92;11.73;;;;;;;;;;5003160;28;20054;-69
2023/01/22 05:26:33;;;;;;;23.27;12.57;;;;;;;;;;4999498;28;20046;-68
2023/01/22 05:29:06;;;;;;;23.40;12.02;;;;;;;;;;5013771;28;20513;-68
2023/01/22 05:31:41;;;;;;;22.40;11.73;;;;;;;;;;4998148;28;20041;-69
2023/01/22 05:34:14;;;;;;;21.92;12.20;;;;;;;;;;4999700;28;20041;-69
2023/01/22 05:36:40;;;;;;;22.05;11.77;;;;;;;;;;5000074;28;20613;-68
2023/01/22 05:39:13;;;;;;;30.33;12.77;;;;;;;;;;4998189;28;20139;-69
2023/01/22 05:41:39;;;;;;;25.08;12.52;;;;;;;;;;4947909;28;20038;-69
2023/01/22 05:45:41;;;;;;;27.60;12.35;;;;;;;;;;5027844;27;20396;-69
2023/01/22 05:48:35;;;;;;;21.88;11.63;;;;;;;;;;5047253;28;20072;-67
2023/01/22 05:51:10;;;;;;;22.05;12.15;;;;;;;;;;4933643;28;20128;-68
2023/01/22 05:53:35;;;;;;;23.67;11.70;;;;;;;;;;5056233;28;20135;-67
2023/01/22 05:56:03;;;;;;;23.02;12.20;;;;;;;;;;5057061;28;20145;-68
2023/01/22 05:58:33;;;;;;;28.17;13.63;;;;;;;;;;5054927;28;20055;-67
2023/01/22 06:00:58;;;;;;;23.20;12.63;;;;;;;;;;5055221;28;20040;-67
2023/01/22 06:03:28;;;;;;;26.27;12.32;;;;;;;;;;5052865;28;20037;-68
2023/01/22 06:06:03;;;;;;;25.15;11.43;;;;;;;;;;5055510;28;20092;-69
2023/01/22 06:08:28;;;;;;;42.55;11.63;;;;;;;;;;5054768;28;20045;-68
2023/01/22 06:11:04;;;;;;;105.97;10.60;;;;;;;;;;5055159;28;20051;-68
2023/01/22 06:13:31;;;;;;;25.83;9.65;;;;;;;;;;5048139;28;20081;-67
2023/01/22 06:16:03;;;;;;;43.13;12.15;;;;;;;;;;5054358;28;20059;-68
2023/01/22 06:18:48;;;;;;;27.58;11.43;;;;;;;;;;5017690;28;20051;-69
2023/01/22 06:21:15;;;;;;;39.83;10.63;;;;;;;;;;5052602;28;20049;-68
2023/01/22 06:23:40;;;;;;;35.10;10.25;;;;;;;;;;5034662;28;20056;-67
2023/01/22 06:26:07;;;;;;;67.40;10.00;;;;;;;;;;5053937;28;20118;-70
2023/01/22 06:28:32;;;;;;;88.22;9.43;;;;;;;;;;5028139;28;20045;-70
2023/01/22 06:31:04;;;;;;;127.22;11.68;;;;;;;;;;5054216;28;20040;-68
2023/01/22 06:33:34;;;;;;;36.72;10.25;;;;;;;;;;5054929;28;20585;-69
2023/01/22 06:36:00;;;;;;;57.30;11.02;;;;;;;;;;5055065;28;20048;-69
2023/01/22 06:38:26;;;;;;;41.03;11.00;;;;;;;;;;5054306;28;20102;-68
2023/01/22 06:40:53;;;;;;;45.53;10.05;;;;;;;;;;5055237;28;20072;-70
2023/01/22 06:43:19;;;;;;;31.80;11.18;;;;;;;;;;5055239;28;20047;-70
2023/01/22 06:45:47;;;;;;;25.48;11.35;;;;;;;;;;5054144;28;20056;-69
2023/01/22 06:48:13;;;;;;;24.45;11.23;;;;;;;;;;5071063;28;20052;-73
2023/01/22 06:50:39;;;;;;;24.13;11.65;;;;;;;;;;5055070;28;20745;-68
2023/01/22 06:53:04;;;;;;;22.13;11.70;;;;;;;;;;5054876;28;20079;-71
2023/01/22 06:55:30;;;;;;;43.35;11.38;;;;;;;;;;5052135;28;20037;-70
2023/01/22 06:57:56;;;;;;;36.28;12.75;;;;;;;;;;5040616;28;20080;-70
2023/01/22 07:00:21;;;;;;;30.30;12.57;;;;;;;;;;5042217;28;20037;-70
2023/01/22 07:02:47;;;;;;;28.95;12.38;;;;;;;;;;5042888;28;20041;-72
2023/01/22 07:05:14;;;;;;;36.65;14.38;;;;;;;;;;5041498;28;20045;-71
2023/01/22 07:07:40;;;;;;;23.75;12.30;;;;;;;;;;5041548;28;20536;-71
2023/01/22 07:10:06;;;;;;;26.60;12.90;;;;;;;;;;5042035;28;20058;-73
2023/01/22 07:12:31;;;;;;;25.80;13.18;;;;;;;;;;5043053;28;20064;-70
2023/01/22 07:14:57;;;;;;;26.17;12.05;;;;;;;;;;5042762;28;20879;-68
2023/01/22 07:17:22;;;;;;;29.58;13.75;;;;;;;;;;5042651;28;20048;-69
2023/01/22 07:19:47;;;;;;;27.08;13.95;;;;;;;;;;5040362;28;20045;-69
2023/01/22 07:22:13;;;;;;;28.13;13.82;;;;;;;;;;5042615;28;20053;-68
2023/01/22 07:24:38;;;;;;;25.45;13.52;;;;;;;;;;5042608;28;20057;-69
2023/01/22 07:27:04;;;;;;;20.83;12.45;;;;;;;;;;5043182;28;20045;-68
2023/01/22 07:29:29;;;;;;;24.63;12.18;;;;;;;;;;5039767;28;20057;-70
2023/01/22 07:31:54;;;;;;;21.30;12.75;;;;;;;;;;5042126;28;20053;-71
2023/01/22 07:34:20;;;;;;;27.55;12.52;;;;;;;;;;5042245;28;20059;-68
2023/01/22 07:36:45;;;;;;;22.95;11.32;;;;;;;;;;5042620;28;20052;-69
2023/01/22 07:39:11;;;;;;;20.50;11.35;;;;;;;;;;5041688;28;20490;-69
2023/01/22 07:41:36;;;;;;;22.65;12.32;;;;;;;;;;5040880;28;20568;-72
2023/01/22 07:44:10;;;;;;;22.98;12.00;;;;;;;;;;5040845;28;20052;-72
2023/01/22 07:46:35;;;;;;;23.00;12.32;;;;;;;;;;5042319;28;20107;-70
2023/01/22 07:49:01;;;;;;;23.90;12.73;;;;;;;;;;5040110;28;21020;-71
2023/01/22 07:51:26;;;;;;;23.70;11.93;;;;;;;;;;5040900;28;20057;-73
2023/01/22 07:53:52;;;;;;;23.55;11.80;;;;;;;;;;5042155;28;20052;-67
2023/01/22 07:56:18;;;;;;;23.38;12.20;;;;;;;;;;5042397;28;20509;-71
2023/01/22 07:58:44;;;;;;;23.70;12.32;;;;;;;;;;5041755;28;20048;-67
2023/01/22 08:01:10;;;;;;;25.30;13.25;;;;;;;;;;5042318;28;20110;-67
2023/01/22 08:03:36;;;;;;;23.70;12.82;;;;;;;;;;5055545;28;20045;-67
2023/01/22 08:06:08;;;;;;;21.85;11.93;;;;;;;;;;5042115;28;20053;-67
2023/01/22 08:08:33;;;;;;;28.17;13.38;;;;;;;;;;5040175;28;20148;-67
2023/01/22 08:10:59;;;;;;;24.67;13.27;;;;;;;;;;5041772;28;20136;-68
2023/01/22 08:13:24;;;;;;;24.30;13.18;;;;;;;;;;5040971;28;20041;-67
2023/01/22 08:15:50;;;;;;;23.67;13.10;;;;;;;;;;5040818;28;20118;-68
2023/01/22 08:18:15;;;;;;;24.48;13.52;;;;;;;;;;5040446;28;20071;-68
2023/01/22 08:20:41;;;;;;;22.80;12.45;;;;;;;;;;5041869;28;20417;-68
2023/01/22 08:23:06;;;;;;;28.92;12.63;;;;;;;;;;5041510;28;20044;-68
2023/01/22 08:25:31;;;;;;;24.00;12.18;;;;;;;;;;5040149;28;20071;-68
2023/01/22 08:28:01;;;;;;;22.35;12.75;;;;;;;;;;5040652;28;20134;-69
2023/01/22 08:30:27;;;;;;;22.08;12.13;;;;;;;;;;5040193;28;20049;-69
2023/01/22 08:32:53;;;;;;;21.50;11.68;;;;;;;;;;5041302;28;20086;-68
2023/01/22 08:35:19;;;;;;;22.13;12.63;;;;;;;;;;5040425;28;20504;-67
2023/01/22 08:37:45;;;;;;;24.23;13.25;;;;;;;;;;5040165;28;20045;-68
2023/01/22 08:40:12;;;;;;;21.85;12.68;;;;;;;;;;5040544;28;20045;-68
2023/01/22 08:42:38;;;;;;;22.45;11.82;;;;;;;;;;5041321;28;20040;-71
2023/01/22 08:45:04;;;;;;;23.00;12.55;;;;;;;;;;5040722;28;20064;-68
2023/01/22 08:47:30;;;;;;;22.48;12.65;;;;;;;;;;5040505;28;20052;-68
2023/01/22 08:49:56;;;;;;;22.48;12.23;;;;;;;;;;5041121;28;20056;-70
2023/01/22 08:52:21;;;;;;;21.10;12.43;;;;;;;;;;5039565;28;20053;-70
2023/01/22 08:54:47;;;;;;;22.75;11.98;;;;;;;;;;5031396;28;20048;-70
2023/01/22 08:57:13;;;;;;;21.70;12.10;;;;;;;;;;5039792;28;20048;-69
2023/01/22 08:59:38;;;;;;;20.98;11.68;;;;;;;;;;5039549;28;20079;-69
2023/01/22 09:02:04;;;;;;;20.20;11.60;;;;;;;;;;5041200;28;20099;-69
2023/01/22 09:04:29;;;;;;;19.40;10.98;;;;;;;;;;5040649;28;20561;-69
2023/01/22 09:06:55;;;;;;;18.40;9.80;;;;;;;;;;5041111;28;20061;-69
2023/01/22 09:09:20;;;;;;;14.65;9.00;;;;;;;;;;5039292;28;20128;-69
2023/01/22 09:11:46;;;;;;;18.50;10.27;;;;;;;;;;5038816;28;20507;-69
2023/01/22 09:14:12;;;;;;;18.77;10.75;;;;;;;;;;5040344;28;20530;-67
2023/01/22 09:16:38;;;;;;;17.48;10.57;;;;;;;;;;5040678;28;20041;-68
2023/01/22 09:19:04;;;;;;;17.85;9.32;;;;;;;;;;5040162;28;20048;-70
2023/01/22 09:21:32;;;;;;;18.13;9.40;;;;;;;;;;5054524;28;20048;-69
2023/01/22 09:23:57;;;;;;;16.70;9.52;;;;;;;;;;5039253;28;20144;-69
2023/01/22 09:26:23;;;;;;;15.80;9.82;;;;;;;;;;5039154;28;20131;-69
2023/01/22 09:28:48;;;;;;;17.13;10.05;;;;;;;;;;5055046;28;20048;-69
2023/01/22 09:31:14;;;;;;;19.73;11.07;;;;;;;;;;5038438;28;20051;-69
2023/01/22 09:33:39;;;;;;;18.42;10.52;;;;;;;;;;5055268;28;20052;-68
2023/01/22 09:36:06;;;;;;;16.90;10.50;;;;;;;;;;5040236;28;20048;-68
2023/01/22 09:38:33;;;;;;;15.32;9.82;;;;;;;;;;5039639;28;21103;-69
2023/01/22 09:41:01;;;;;;;16.33;9.55;;;;;;;;;;5039096;28;20510;-68
2023/01/22 09:43:33;;;;;;;15.90;9.50;;;;;;;;;;5038777;28;20412;-68
2023/01/22 09:46:02;;;;;;;;;;;;;;;;;;5031649;28;20079;-68
2023/01/22 09:48:42;;;;;;;14.05;8.27;;;;;;;;;;5038198;28;19921;-68
2023/01/22 09:51:14;;;;;;;14.85;9.43;;;;;;;;;;5040530;28;20049;-69
2023/01/22 09:53:41;;;;;;;16.80;10.27;;;;;;;;;;5038711;28;20056;-69
2023/01/22 09:56:16;;;;;;;18.80;10.60;;;;;;;;;;5039980;28;20142;-69
2023/01/22 09:58:41;;;;;;;20.40;12.63;;;;;;;;;;5039216;28;20084;-70
2023/01/22 10:01:07;;;;;;;17.95;11.25;;;;;;;;;;5040148;28;20128;-68
2023/01/22 10:03:39;;;;;;;20.05;11.60;;;;;;;;;;5038548;28;20044;-72
2023/01/22 10:06:13;;;;;;;17.30;10.63;;;;;;;;;;5040099;28;20174;-70
2023/01/22 10:09:10;;;;;;;19.38;11.07;;;;;;;;;;5039851;28;20053;-69
2023/01/22 10:11:36;;;;;;;16.90;10.00;;;;;;;;;;5039545;28;20086;-69
2023/01/22 10:14:06;;;;;;;13.75;9.20;;;;;;;;;;5038712;28;20421;-68
2023/01/22 10:16:31;;;;;;;14.95;9.65;;;;;;;;;;5039474;28;20049;-68
2023/01/22 10:19:21;;;;;;;16.67;10.40;;;;;;;;;;5040227;28;20107;-68
2023/01/22 10:22:01;;;;;;;16.45;9.93;;;;;;;;;;5039443;28;20045;-68
2023/01/22 10:24:27;;;;;;;15.30;9.48;;;;;;;;;;5040127;28;20049;-72
2023/01/22 10:26:54;;;;;;;15.20;10.02;;;;;;;;;;5038751;28;20162;-71
2023/01/22 10:29:28;;;;;;;14.85;9.25;;;;;;;;;;5038852;28;20156;-71
2023/01/22 10:32:00;;;;;;;17.70;9.57;;;;;;;;;;5042195;28;20053;-69
2023/01/22 10:34:34;;;;;;;16.10;9.38;;;;;;;;;;5043876;28;20068;-71
2023/01/22 10:37:08;;;;;;;15.75;10.35;;;;;;;;;;5041312;28;20041;-70
2023/01/22 10:39:44;;;;;;;16.23;10.07;;;;;;;;;;5040601;28;20044;-69
2023/01/22 10:42:18;;;;;;;18.38;10.57;;;;;;;;;;5043186;28;20059;-72
2023/01/22 10:44:43;;;;;;;16.50;10.45;;;;;;;;;;5043354;28;20036;-70
2023/01/22 10:47:19;;;;;;;16.77;10.57;;;;;;;;;;5042445;28;20055;-71
2023/01/22 10:49:45;;;;;;;15.45;10.00;;;;;;;;;;5042256;28;20091;-69
2023/01/22 10:52:23;;;;;;;15.98;9.82;;;;;;;;;;5043322;28;20495;-69
2023/01/22 10:54:55;;;;;;;13.93;9.10;;;;;;;;;;5044021;28;20049;-68
2023/01/22 10:57:26;;;;;;;14.30;9.57;;;;;;;;;;5044000;28;20986;-68
2023/01/22 10:59:58;;;;;;;16.65;9.85;;;;;;;;;;5046946;28;20137;-68
2023/01/22 11:02:25;;;;;;;14.70;9.68;;;;;;;;;;5054288;28;20044;-68
2023/01/22 11:04:51;;;;;;;15.55;9.65;;;;;;;;;;5044843;28;20041;-68
2023/01/22 11:07:21;;;;;;;13.75;9.23;;;;;;;;;;5045871;28;20071;-67
2023/01/22 11:09:52;;;;;;;17.50;9.52;;;;;;;;;;5042370;28;20106;-70
2023/01/22 11:12:26;;;;;;;16.80;9.80;;;;;;;;;;5043089;28;20049;-70
2023/01/22 11:15:19;;;;;;;15.25;9.00;;;;;;;;;;5043304;28;20414;-70
2023/01/22 11:17:51;;;;;;;15.65;8.63;;;;;;;;;;5042806;28;20049;-72
2023/01/22 11:20:42;;;;;;;14.30;9.07;;;;;;;;;;5043297;28;20053;-70
2023/01/22 11:23:08;;;;;;;15.60;9.55;;;;;;;;;;5043666;28;20079;-68
2023/01/22 11:25:56;;;;;;;16.45;9.57;;;;;;;;;;5043771;28;21078;-68
2023/01/22 11:28:53;;;;;;;17.10;9.27;;;;;;;;;;5043958;28;20441;-67
2023/01/22 11:31:34;;;;;;;16.13;10.23;;;;;;;;;;5040213;28;20658;-68
2023/01/22 11:34:06;;;;;;;14.02;8.57;;;;;;;;;;5042841;28;20045;-68
2023/01/22 11:36:34;;;;;;;13.30;9.23;;;;;;;;;;5043574;28;20049;-68
2023/01/22 11:39:14;;;;;;;15.00;9.63;;;;;;;;;;5042981;28;20065;-68
2023/01/22 11:41:40;;;;;;;18.15;9.73;;;;;;;;;;5041665;28;20982;-71
2023/01/22 11:44:17;;;;;;;14.48;9.23;;;;;;;;;;5041677;28;20672;-70
2023/01/22 11:47:14;;;;;;;14.05;8.68;;;;;;;;;;5041032;28;20397;-69
2023/01/22 11:49:51;;;;;;;14.25;8.32;;;;;;;;;;5055005;28;20203;-68
2023/01/22 11:52:17;;;;;;;13.82;8.55;;;;;;;;;;5040243;28;20060;-69
2023/01/22 11:54:54;;;;;;;15.88;8.88;;;;;;;;;;5040183;28;20100;-68
2023/01/22 11:57:32;;;;;;;13.48;8.23;;;;;;;;;;5040806;28;20386;-68
2023/01/22 12:00:28;;;;;;;11.43;8.07;;;;;;;;;;5039641;28;20048;-67
2023/01/22 12:02:59;;;;;;;12.77;7.55;;;;;;;;;;5041542;28;20071;-68
2023/01/22 12:05:30;;;;;;;10.75;7.55;;;;;;;;;;5040084;28;20156;-68
2023/01/22 12:08:30;;;;;;;10.15;7.20;;;;;;;;;;5040111;28;20072;-68
2023/01/22 12:11:14;;;;;;;11.38;7.07;;;;;;;;;;5040589;28;20088;-68
2023/01/22 12:13:56;;;;;;;12.10;7.82;;;;;;;;;;5039999;28;20462;-68
2023/01/22 12:16:31;;;;;;;11.88;7.88;;;;;;;;;;5039202;28;20049;-68
2023/01/22 12:19:24;;;;;;;16.08;8.23;;;;;;;;;;5039619;28;20561;-68
2023/01/22 12:22:07;;;;;;;15.52;9.07;;;;;;;;;;5039175;28;20155;-68
2023/01/22 12:24:57;;;;;;;11.43;7.40;;;;;;;;;;5039337;28;20045;-68
2023/01/22 12:27:33;;;;;;;13.88;8.63;;;;;;;;;;5039746;28;20053;-69
2023/01/22 12:30:35;;;;;;;15.43;9.05;;;;;;;;;;5055123;28;20095;-69
2023/01/22 12:33:04;;;;;;;14.20;8.93;;;;;;;;;;5041009;28;20044;-68
2023/01/22 12:35:30;;;;;;;15.50;8.50;;;;;;;;;;5041097;28;20040;-68
2023/01/22 12:38:10;;;;;;;14.82;8.82;;;;;;;;;;5039724;28;20052;-68
2023/01/22 12:41:17;;;;;;;13.82;8.45;;;;;;;;;;5040158;28;20051;-68
2023/01/22 12:43:51;;;;;;;16.30;9.18;;;;;;;;;;5028578;28;20044;-71
2023/01/22 12:46:49;;;;;;;15.90;8.85;;;;;;;;;;5029664;28;20505;-69
2023/01/22 12:49:15;;;;;;;18.98;10.93;;;;;;;;;;5032410;28;20920;-69
2023/01/22 12:51:50;;;;;;;19.33;11.40;;;;;;;;;;5034311;28;20047;-69
2023/01/22 12:54:21;;;;;;;16.42;9.75;;;;;;;;;;5035438;28;20055;-69
2023/01/22 12:56:49;;;;;;;20.83;10.45;;;;;;;;;;5036664;28;20033;-69
2023/01/22 12:59:30;;;;;;;17.52;10.32;;;;;;;;;;5034683;28;20048;-69
2023/01/22 13:02:04;;;;;;;19.15;10.70;;;;;;;;;;5035551;28;20079;-69
2023/01/22 13:04:31;;;;;;;11.55;7.45;;;;;;;;;;5034661;28;20120;-69
2023/01/22 13:07:21;;;;;;;15.57;8.93;;;;;;;;;;5035822;28;20069;-70
2023/01/22 13:09:46;;;;;;;17.50;10.15;;;;;;;;;;5035281;28;20040;-70
2023/01/22 13:12:26;;;;;;;20.75;11.27;;;;;;;;;;5036395;28;20479;-70
2023/01/22 13:14:52;;;;;;;20.42;11.38;;;;;;;;;;5033077;28;20036;-69
2023/01/22 13:17:29;;;;;;;20.00;10.32;;;;;;;;;;5039836;28;20049;-69
2023/01/22 13:19:55;;;;;;;18.95;10.50;;;;;;;;;;5032713;28;20147;-71
2023/01/22 13:22:26;;;;;;;18.67;10.77;;;;;;;;;;5032285;28;20041;-70
2023/01/22 13:24:56;;;;;;;20.50;12.00;;;;;;;;;;5038578;28;20048;-70
2023/01/22 13:27:44;;;;;;;20.70;12.02;;;;;;;;;;5037096;28;20516;-70
2023/01/22 13:30:16;;;;;;;22.50;12.65;;;;;;;;;;5022112;28;20075;-70
2023/01/22 13:32:42;;;;;;;19.85;11.48;;;;;;;;;;5036524;28;20056;-70
2023/01/22 13:35:11;;;;;;;22.55;11.45;;;;;;;;;;5036156;28;20045;-70
2023/01/22 13:37:37;;;;;;;22.42;12.40;;;;;;;;;;5036115;28;20156;-70
2023/01/22 13:40:10;;;;;;;38.78;19.40;;;;;;;;;;5037158;28;20043;-70
2023/01/22 13:42:36;;;;;;;27.27;13.90;;;;;;;;;;5036286;28;20068;-71
2023/01/22 13:45:02;;;;;;;24.65;11.73;;;;;;;;;;5037604;28;20037;-70
2023/01/22 13:47:33;;;;;;;24.77;12.88;;;;;;;;;;5035731;28;20056;-70
2023/01/22 13:49:59;;;;;;;22.25;12.85;;;;;;;;;;5051443;28;20144;-71
2023/01/22 13:52:27;;;;;;;16.73;9.75;;;;;;;;;;5036890;28;20140;-71
2023/01/22 13:55:22;;;;;;;21.95;11.70;;;;;;;;;;5036502;28;20036;-70
2023/01/22 13:57:51;;;;;;;14.50;8.23;;;;;;;;;;5020214;28;20199;-70
2023/01/22 14:00:26;;;;;;;18.20;10.50;;;;;;;;;;5037163;28;20052;-71
2023/01/22 14:02:52;;;;;;;16.63;8.93;;;;;;;;;;5038455;28;20055;-69
2023/01/22 14:05:26;;;;;;;20.73;10.88;;;;;;;;;;5034081;28;20041;-70
2023/01/22 14:08:19;;;;;;;18.08;10.02;;;;;;;;;;5040534;28;20786;-69
2023/01/22 14:10:55;;;;;;;17.60;10.65;;;;;;;;;;5040903;28;20041;-70
2023/01/22 14:13:21;;;;;;;18.80;10.60;;;;;;;;;;5035928;28;20040;-70
2023/01/22 14:16:05;;;;;;;19.33;10.25;;;;;;;;;;5034517;28;20033;-70
2023/01/22 14:18:34;;;;;;;18.77;10.48;;;;;;;;;;5039065;28;20099;-70
2023/01/22 14:20:59;;;;;;;12.40;7.85;;;;;;;;;;5039482;28;20037;-70
2023/01/22 14:23:25;;;;;;;16.73;9.32;;;;;;;;;;5052338;28;20044;-69
2023/01/22 14:25:52;;;;;;;17.25;10.30;;;;;;;;;;5036282;28;20052;-70
2023/01/22 14:28:20;;;;;;;12.07;6.40;;;;;;;;;;5037782;28;20056;-70
2023/01/22 14:30:46;;;;;;;17.88;9.90;;;;;;;;;;5038583;28;20754;-70
2023/01/22 14:33:17;;;;;;;19.42;10.85;;;;;;;;;;5041156;28;20048;-70
2023/01/22 14:35:43;;;;;;;17.50;9.67;;;;;;;;;;5037748;28;20106;-68
2023/01/22 14:38:08;;;;;;;23.48;13.18;;;;;;;;;;5032030;28;20299;-70
2023/01/22 14:40:34;;;;;;;19.02;11.10;;;;;;;;;;5039111;28;20371;-70
2023/01/22 14:43:00;;;;;;;22.65;11.27;;;;;;;;;;5040099;28;20032;-70
2023/01/22 14:45:25;;;;;;;17.85;10.63;;;;;;;;;;5039466;28;20041;-69
2023/01/22 14:47:52;;;;;;;19.88;9.65;;;;;;;;;;5038004;28;22593;-69